Time;durP1;ratioP1;P1;durP2;ratioP2;P2;SDS_P1;SDS_P2;PMS_P1;PMS_P2;Temp;Humidity;BMP_temperature;BMP_pressure;BME280_temperature;BME280_humidity;BME280_pressure;Samples;Min_cycle;Max_cycle;Signal;HPM_P1;HPM_P2
2022/05/05 00:00:16;;;;;;;8.15;5.72;;;8.60;99.90;;;;;;5049186;28;20040;-74
2022/05/05 00:02:42;;;;;;;11.30;5.90;;;8.50;99.90;;;;;;5049984;28;20045;-74
2022/05/05 00:05:08;;;;;;;13.33;5.87;;;8.50;99.90;;;;;;5048898;28;20143;-74
2022/05/05 00:07:33;;;;;;;12.13;6.50;;;8.50;99.90;;;;;;5052739;28;20047;-75
2022/05/05 00:14:23;;;;;;;12.90;6.20;;;8.50;99.90;;;;;;5052555;28;20052;-74
2022/05/05 00:15:29;;;;;;;9.30;5.55;;;8.60;99.90;;;;;;5032759;28;20536;-74
2022/05/05 00:17:54;;;;;;;11.00;6.10;;;8.50;99.90;;;;;;5032675;28;20025;-75
2022/05/05 00:20:20;;;;;;;8.03;5.40;;;8.50;99.90;;;;;;5035597;28;20289;-74
2022/05/05 00:22:46;;;;;;;10.10;5.37;;;8.50;99.90;;;;;;5052499;28;20044;-74
2022/05/05 00:25:11;;;;;;;10.47;5.30;;;8.50;99.90;;;;;;5051848;28;20046;-74
2022/05/05 00:27:37;;;;;;;11.73;5.60;;;8.50;99.90;;;;;;5052506;28;20287;-74
2022/05/05 00:30:03;;;;;;;10.30;5.03;;;8.50;99.90;;;;;;5051767;28;20063;-74
2022/05/05 00:32:29;;;;;;;9.52;5.68;;;8.60;99.90;;;;;;5049472;28;20057;-75
2022/05/05 00:34:54;;;;;;;12.77;5.87;;;8.50;99.90;;;;;;5052397;28;20427;-74
2022/05/05 00:37:20;;;;;;;8.80;5.33;;;8.60;99.90;;;;;;5047415;28;20072;-75
2022/05/05 00:39:46;;;;;;;10.40;5.73;;;8.60;99.90;;;;;;5039478;28;20299;-74
2022/05/05 00:42:12;;;;;;;11.73;5.70;;;8.60;99.90;;;;;;5051940;28;20098;-74
2022/05/05 00:44:38;;;;;;;;;;;8.60;99.90;;;;;;5052122;28;20047;-74
2022/05/05 00:47:04;;;;;;;14.30;6.38;;;8.70;99.90;;;;;;5051871;28;19916;-74
2022/05/05 00:49:30;;;;;;;16.40;7.07;;;8.60;99.90;;;;;;5052018;28;20519;-74
2022/05/05 00:51:58;;;;;;;9.33;6.03;;;8.60;99.90;;;;;;5052118;28;20064;-74
2022/05/05 00:54:24;;;;;;;11.10;6.20;;;8.60;99.90;;;;;;5034520;28;20325;-75
2022/05/05 00:56:51;;;;;;;12.90;6.55;;;8.50;99.90;;;;;;5041986;28;20401;-74
2022/05/05 00:59:17;;;;;;;11.70;6.13;;;8.50;99.90;;;;;;5032022;28;20075;-74
2022/05/05 01:01:43;;;;;;;13.07;5.70;;;8.50;99.90;;;;;;5050170;28;20108;-74
2022/05/05 01:04:09;;;;;;;11.02;6.55;;;8.60;99.90;;;;;;5048104;28;20493;-74
2022/05/05 01:06:35;;;;;;;15.13;6.28;;;8.60;99.90;;;;;;5035244;28;20040;-73
2022/05/05 01:09:02;;;;;;;12.15;5.93;;;8.60;99.90;;;;;;5048756;28;20135;-73
2022/05/05 01:11:30;;;;;;;9.18;5.78;;;8.60;99.90;;;;;;5050439;28;20036;-74
2022/05/05 01:13:56;;;;;;;10.63;6.03;;;8.60;99.90;;;;;;5051358;28;20049;-74
2022/05/05 01:16:23;;;;;;;10.18;5.82;;;8.60;99.90;;;;;;5051421;28;20036;-75
2022/05/05 01:18:51;;;;;;;11.52;5.82;;;8.50;99.90;;;;;;5048718;28;20385;-74
2022/05/05 01:21:19;;;;;;;12.60;6.03;;;8.60;99.90;;;;;;5031430;28;20041;-74
2022/05/05 01:23:45;;;;;;;11.65;5.32;;;8.60;99.90;;;;;;5052012;28;20503;-74
2022/05/05 01:28:57;;;;;;;8.77;4.68;;;8.60;99.90;;;;;;5038935;28;20051;-73
2022/05/05 01:31:22;;;;;;;11.40;4.82;;;8.60;99.90;;;;;;5040702;28;20056;-74
2022/05/05 01:33:48;;;;;;;10.63;5.70;;;8.60;99.90;;;;;;5034337;28;20110;-74
2022/05/05 01:36:14;;;;;;;10.00;4.88;;;8.60;99.90;;;;;;5031052;28;20341;-74
2022/05/05 01:38:44;;;;;;;8.52;4.82;;;8.50;99.90;;;;;;5050187;28;20361;-74
2022/05/05 01:41:14;;;;;;;10.10;4.75;;;8.60;99.90;;;;;;5047745;28;20064;-74
2022/05/05 01:43:44;;;;;;;10.95;4.90;;;8.60;99.90;;;;;;5048524;28;20493;-74
2022/05/05 01:46:10;;;;;;;8.68;4.93;;;8.60;99.90;;;;;;5049337;28;20040;-74
2022/05/05 01:48:36;;;;;;;7.50;4.45;;;8.60;99.90;;;;;;5053219;28;20032;-74
2022/05/05 01:51:03;;;;;;;10.40;5.00;;;8.60;99.90;;;;;;5055267;28;20040;-73
2022/05/05 01:53:36;;;;;;;10.77;4.65;;;8.50;99.90;;;;;;5047393;28;20775;-74
2022/05/05 01:56:07;;;;;;;9.98;4.90;;;8.60;99.90;;;;;;5055161;28;20037;-74
2022/05/05 01:58:33;;;;;;;10.32;4.95;;;8.50;99.90;;;;;;5054573;28;20058;-74
2022/05/05 02:00:58;;;;;;;9.65;4.40;;;8.70;99.90;;;;;;5054901;28;20040;-74
2022/05/05 02:03:24;;;;;;;11.80;5.10;;;8.50;99.90;;;;;;5038047;28;20068;-75
2022/05/05 02:05:49;;;;;;;8.57;5.43;;;8.50;99.90;;;;;;5055241;28;20048;-74
2022/05/05 02:08:15;;;;;;;7.40;4.60;;;8.50;99.90;;;;;;5054711;28;20289;-74
2022/05/05 02:10:41;;;;;;;7.43;4.40;;;8.50;99.90;;;;;;5055012;28;20047;-75
2022/05/05 02:13:07;;;;;;;8.50;4.37;;;8.40;99.90;;;;;;5054594;28;20041;-75
2022/05/05 02:15:34;;;;;;;9.07;4.15;;;8.40;99.90;;;;;;5054141;28;20293;-74
2022/05/05 02:18:08;;;;;;;9.98;4.97;;;8.50;99.90;;;;;;5051452;28;20116;-74
2022/05/05 02:20:34;;;;;;;10.18;4.53;;;8.40;99.90;;;;;;5045192;28;20132;-74
2022/05/05 02:23:00;;;;;;;8.77;4.25;;;8.30;99.90;;;;;;5054522;28;20548;-74
2022/05/05 02:25:25;;;;;;;9.13;4.50;;;8.40;99.90;;;;;;5050839;28;20111;-74
2022/05/05 02:27:53;;;;;;;9.73;4.50;;;8.30;99.90;;;;;;5054708;28;20036;-74
2022/05/05 02:30:23;;;;;;;11.05;4.90;;;8.30;99.90;;;;;;5053382;28;20098;-74
2022/05/05 02:32:49;;;;;;;11.15;4.70;;;8.30;99.90;;;;;;5050873;28;20045;-75
2022/05/05 02:35:15;;;;;;;9.05;4.45;;;8.20;99.90;;;;;;5054322;28;20043;-74
2022/05/05 02:40:26;;;;;;;8.27;4.30;;;8.20;99.90;;;;;;5053572;28;20052;-75
2022/05/05 02:42:53;;;;;;;11.27;4.53;;;8.10;99.90;;;;;;5050890;28;20053;-74
2022/05/05 02:45:19;;;;;;;10.13;5.10;;;8.10;99.90;;;;;;5040547;28;20036;-74
2022/05/05 02:47:47;;;;;;;9.50;4.90;;;8.10;99.90;;;;;;5051088;28;20044;-73
2022/05/05 02:50:13;;;;;;;10.73;4.80;;;8.10;99.90;;;;;;5041335;28;20072;-74
2022/05/05 02:52:39;;;;;;;7.85;4.90;;;8.00;99.90;;;;;;5033650;28;20090;-74
2022/05/05 02:55:07;;;;;;;13.57;4.70;;;8.10;99.90;;;;;;5036625;28;20131;-73
2022/05/05 02:57:32;;;;;;;9.70;5.53;;;8.10;99.90;;;;;;5033490;28;20037;-74
2022/05/05 02:59:58;;;;;;;8.70;5.23;;;8.20;99.90;;;;;;5033410;28;20159;-74
2022/05/05 03:02:24;;;;;;;9.95;5.00;;;8.10;99.90;;;;;;5051271;28;20090;-74
2022/05/05 03:04:50;;;;;;;8.90;5.47;;;8.10;99.90;;;;;;5036903;28;20042;-74
2022/05/05 03:07:16;;;;;;;9.35;5.80;;;8.10;99.90;;;;;;5039062;28;20125;-74
2022/05/05 03:09:42;;;;;;;9.77;5.32;;;8.10;99.90;;;;;;5070087;28;20079;-74
2022/05/05 03:12:09;;;;;;;11.02;5.50;;;8.10;99.90;;;;;;5053696;28;20029;-74
2022/05/05 03:14:35;;;;;;;11.00;5.20;;;8.10;99.90;;;;;;5050149;28;20032;-74
2022/05/05 03:17:01;;;;;;;11.07;5.38;;;8.10;99.90;;;;;;5048732;28;20033;-74
2022/05/05 03:19:26;;;;;;;10.32;4.90;;;8.00;99.90;;;;;;5044050;28;20045;-74
2022/05/05 03:21:55;;;;;;;9.33;5.27;;;8.00;99.90;;;;;;5036867;28;20071;-73
2022/05/05 03:24:21;;;;;;;11.30;5.50;;;8.10;99.90;;;;;;5052634;28;20070;-74
2022/05/05 03:26:47;;;;;;;14.03;6.07;;;8.00;99.90;;;;;;5049993;28;20049;-74
2022/05/05 03:29:12;;;;;;;9.87;5.33;;;8.00;99.90;;;;;;5033286;28;20292;-75
2022/05/05 03:31:39;;;;;;;11.40;5.20;;;8.00;99.90;;;;;;5049322;28;20045;-75
2022/05/05 03:34:05;;;;;;;7.40;5.35;;;8.00;99.90;;;;;;5050103;28;20037;-73
2022/05/05 03:36:31;;;;;;;;;;;8.00;99.90;;;;;;5036557;28;20040;-74
2022/05/05 03:38:56;;;;;;;14.15;6.47;;;7.80;99.90;;;;;;5066614;28;20271;-74
2022/05/05 03:41:22;;;;;;;11.27;6.43;;;7.90;99.90;;;;;;5049594;28;20037;-74
2022/05/05 03:43:49;;;;;;;11.88;6.57;;;7.70;99.90;;;;;;5049701;28;20484;-73
2022/05/05 03:46:14;;;;;;;11.25;6.93;;;7.80;99.90;;;;;;5049772;28;20111;-73
2022/05/05 03:48:40;;;;;;;11.57;6.97;;;7.70;99.90;;;;;;5050407;28;20521;-75
2022/05/05 03:51:06;;;;;;;10.77;6.90;;;7.70;99.90;;;;;;5067961;28;20294;-73
2022/05/05 03:53:32;;;;;;;17.15;7.00;;;7.70;99.90;;;;;;5049049;28;20111;-73
2022/05/05 03:55:58;;;;;;;;;;;7.70;99.90;;;;;;5049715;28;20037;-75
2022/05/05 03:58:25;;;;;;;9.93;6.88;;;7.70;99.90;;;;;;5049521;28;19917;-73
2022/05/05 04:00:51;;;;;;;13.57;6.85;;;7.90;99.90;;;;;;5052980;28;20491;-73
2022/05/05 04:03:32;;;;;;;16.05;7.22;;;7.60;99.90;;;;;;5051389;28;20171;-75
2022/05/05 04:06:03;;;;;;;12.60;7.35;;;7.50;99.90;;;;;;5032888;28;20044;-74
2022/05/05 04:08:30;;;;;;;12.68;7.57;;;7.60;99.90;;;;;;5046422;28;20049;-74
2022/05/05 04:10:56;;;;;;;11.63;7.35;;;7.60;99.90;;;;;;5048901;28;20048;-74
2022/05/05 04:13:22;;;;;;;12.73;7.63;;;8.20;99.90;;;;;;5048079;28;20037;-73
2022/05/05 04:15:48;;;;;;;14.00;7.82;;;7.60;99.90;;;;;;5051394;28;20036;-74
2022/05/05 04:18:14;;;;;;;15.10;7.57;;;8.10;99.90;;;;;;5051374;28;20101;-75
2022/05/05 04:20:42;;;;;;;10.35;7.05;;;7.70;99.90;;;;;;5051105;28;20052;-75
2022/05/05 04:23:08;;;;;;;12.80;7.22;;;7.70;99.90;;;;;;5049156;28;20048;-74
2022/05/05 04:25:35;;;;;;;14.52;7.15;;;7.80;99.90;;;;;;5050592;28;20045;-75
2022/05/05 04:28:01;;;;;;;11.93;7.35;;;7.70;99.90;;;;;;5047759;28;20127;-75
2022/05/05 04:30:27;;;;;;;14.02;7.13;;;7.70;99.90;;;;;;5033141;28;20262;-75
2022/05/05 04:32:53;;;;;;;12.95;7.63;;;7.80;99.90;;;;;;5051687;28;20044;-75
2022/05/05 04:35:18;;;;;;;14.65;7.95;;;7.90;99.90;;;;;;5052179;28;20520;-75
2022/05/05 04:37:44;;;;;;;14.40;7.70;;;7.90;99.90;;;;;;5035311;28;20032;-75
2022/05/05 04:40:10;;;;;;;11.47;7.07;;;8.00;99.90;;;;;;5050460;28;20371;-75
2022/05/05 04:42:37;;;;;;;15.25;7.97;;;8.00;99.90;;;;;;5051586;28;20048;-74
2022/05/05 04:45:04;;;;;;;12.45;7.88;;;8.00;99.90;;;;;;5052017;28;21714;-74
2022/05/05 04:47:31;;;;;;;13.30;7.10;;;8.10;99.90;;;;;;5052088;28;20124;-74
2022/05/05 04:49:57;;;;;;;14.18;6.90;;;8.10;99.90;;;;;;5048790;28;20037;-74
2022/05/05 04:52:27;;;;;;;11.97;7.17;;;8.10;99.90;;;;;;5049058;28;20040;-73
2022/05/05 04:54:55;;;;;;;13.48;7.45;;;8.20;99.90;;;;;;5033228;28;20760;-73
2022/05/05 04:57:21;;;;;;;10.00;6.50;;;8.20;99.90;;;;;;5036190;28;20044;-73
2022/05/05 04:59:46;;;;;;;10.43;6.67;;;8.20;99.90;;;;;;5048841;28;20047;-73
2022/05/05 05:02:12;;;;;;;10.10;6.90;;;8.20;99.90;;;;;;5035060;28;20465;-74
2022/05/05 05:04:38;;;;;;;10.50;6.20;;;8.30;99.90;;;;;;5046247;28;20383;-74
2022/05/05 05:07:04;;;;;;;12.25;6.43;;;8.30;99.90;;;;;;5052413;28;20063;-73
2022/05/05 05:09:29;;;;;;;11.57;6.00;;;8.40;99.90;;;;;;5052543;28;20488;-73
2022/05/05 05:11:55;;;;;;;13.73;6.73;;;8.40;99.90;;;;;;5052262;28;20051;-74
2022/05/05 05:14:21;;;;;;;10.18;6.65;;;8.40;99.90;;;;;;5048982;28;20098;-73
2022/05/05 05:16:46;;;;;;;11.83;6.50;;;8.40;99.90;;;;;;5051934;28;20032;-74
2022/05/05 05:19:12;;;;;;;11.73;6.27;;;8.40;99.90;;;;;;5052162;28;20112;-74
2022/05/05 05:21:38;;;;;;;12.48;6.82;;;8.50;99.90;;;;;;5051704;28;20287;-74
2022/05/05 05:24:04;;;;;;;15.70;6.83;;;8.50;99.90;;;;;;5055092;28;20036;-74
2022/05/05 05:26:30;;;;;;;10.80;6.32;;;8.50;99.90;;;;;;5054090;28;20480;-74
2022/05/05 05:28:55;;;;;;;12.87;6.20;;;8.60;99.90;;;;;;5039739;28;20052;-75
2022/05/05 05:31:22;;;;;;;13.43;6.77;;;8.60;99.90;;;;;;5039112;28;20055;-73
2022/05/05 05:33:48;;;;;;;10.07;6.30;;;8.70;99.90;;;;;;5052075;28;20049;-73
2022/05/05 05:36:14;;;;;;;12.57;6.57;;;8.70;99.90;;;;;;5063380;28;20040;-73
2022/05/05 05:38:40;;;;;;;10.52;6.28;;;8.70;99.90;;;;;;5054329;28;20037;-74
2022/05/05 05:41:06;;;;;;;12.52;6.55;;;8.80;99.90;;;;;;5072295;28;20071;-74
2022/05/05 05:43:32;;;;;;;11.63;6.57;;;8.80;99.90;;;;;;5055610;28;20602;-74
2022/05/05 05:45:58;;;;;;;10.57;6.57;;;8.80;99.90;;;;;;5055195;28;20105;-74
2022/05/05 05:48:23;;;;;;;9.43;6.45;;;8.80;99.90;;;;;;5055488;28;20056;-74
2022/05/05 05:50:49;;;;;;;11.87;6.83;;;8.90;99.90;;;;;;5052253;28;20045;-74
2022/05/05 05:53:15;;;;;;;14.73;7.00;;;9.00;99.90;;;;;;5035599;28;20041;-74
2022/05/05 05:55:41;;;;;;;14.27;6.75;;;9.00;99.90;;;;;;5035285;28;20662;-73
2022/05/05 05:58:07;;;;;;;9.45;6.38;;;9.00;99.90;;;;;;5035291;28;20033;-73
2022/05/05 06:00:33;;;;;;;16.73;6.70;;;9.00;99.90;;;;;;5051924;28;20377;-73
2022/05/05 06:05:45;;;;;;;10.57;6.15;;;9.10;99.90;;;;;;5051454;28;20051;-74
2022/05/05 06:08:11;;;;;;;11.32;6.90;;;9.20;99.90;;;;;;5051874;28;20056;-74
2022/05/05 06:10:36;;;;;;;16.13;6.75;;;9.30;99.90;;;;;;5051693;28;20032;-74
2022/05/05 06:13:02;;;;;;;13.23;6.57;;;9.40;99.90;;;;;;5051748;28;20408;-73
2022/05/05 06:15:28;;;;;;;13.85;6.53;;;9.40;99.90;;;;;;5038292;28;20279;-73
2022/05/05 06:17:54;;;;;;;11.63;6.57;;;9.50;99.90;;;;;;5054483;28;20115;-74
2022/05/05 06:20:20;;;;;;;14.30;6.90;;;9.60;99.90;;;;;;5054692;28;20480;-73
2022/05/05 06:22:46;;;;;;;15.73;6.97;;;9.60;99.90;;;;;;5054536;28;20127;-73
2022/05/05 06:25:12;;;;;;;13.50;6.57;;;9.70;99.90;;;;;;5054843;28;20033;-73
2022/05/05 06:27:38;;;;;;;16.52;6.47;;;9.80;99.90;;;;;;5037836;28;20039;-73
2022/05/05 06:30:13;;;;;;;12.30;6.55;;;9.90;99.90;;;;;;5051004;28;20041;-74
2022/05/05 06:32:42;;;;;;;15.40;6.65;;;9.90;99.90;;;;;;5054497;28;20052;-74
2022/05/05 06:35:09;;;;;;;15.85;7.30;;;9.90;99.90;;;;;;5053893;28;20071;-73
2022/05/05 06:37:35;;;;;;;13.75;6.80;;;10.10;99.90;;;;;;5034931;28;20395;-74
2022/05/05 06:40:01;;;;;;;10.65;6.25;;;10.30;99.90;;;;;;5054171;28;20032;-73
2022/05/05 06:42:27;;;;;;;11.60;6.63;;;10.20;99.90;;;;;;5053873;28;20115;-75
2022/05/05 06:44:53;;;;;;;12.48;6.70;;;10.30;99.90;;;;;;5037557;28;20084;-74
2022/05/05 06:47:19;;;;;;;11.38;6.88;;;10.40;99.90;;;;;;5054288;28;20040;-74
2022/05/05 06:49:45;;;;;;;18.30;7.38;;;10.50;99.90;;;;;;5053699;28;20507;-74
2022/05/05 06:52:10;;;;;;;15.65;6.72;;;10.70;99.90;;;;;;5050845;28;20033;-74
2022/05/05 06:54:36;;;;;;;13.53;7.13;;;10.70;99.90;;;;;;5054305;28;20499;-74
2022/05/05 06:57:02;;;;;;;11.25;7.05;;;10.70;99.90;;;;;;5054119;28;20036;-73
2022/05/05 06:59:28;;;;;;;15.13;7.97;;;10.70;99.90;;;;;;5054216;28;20041;-73
2022/05/05 07:01:54;;;;;;;19.23;7.88;;;10.80;99.90;;;;;;5053523;28;20040;-72
2022/05/05 07:07:13;;;;;;;10.25;6.85;;;10.80;99.90;;;;;;5054427;28;20595;-74
2022/05/05 07:12:25;;;;;;;16.70;7.28;;;10.90;99.90;;;;;;5051995;28;20045;-74
2022/05/05 07:14:51;;;;;;;9.82;6.88;;;11.10;99.90;;;;;;5030043;28;20357;-73
2022/05/05 07:17:17;;;;;;;12.90;7.00;;;11.10;99.90;;;;;;5053937;28;20062;-75
2022/05/05 07:19:43;;;;;;;11.65;6.63;;;11.20;99.90;;;;;;5053642;28;20056;-74
2022/05/05 07:22:09;;;;;;;13.13;6.93;;;11.20;99.90;;;;;;5046502;28;20036;-72
2022/05/05 07:24:35;;;;;;;13.65;7.13;;;11.30;99.90;;;;;;5051129;28;20040;-73
2022/05/05 07:27:02;;;;;;;15.98;6.97;;;11.40;99.90;;;;;;5053080;28;20036;-73
2022/05/05 07:29:28;;;;;;;12.73;6.80;;;11.50;99.90;;;;;;5053240;28;20049;-73
2022/05/05 07:31:54;;;;;;;;;;;11.60;99.90;;;;;;5053367;28;20463;-74
2022/05/05 07:34:19;;;;;;;12.13;6.35;;;11.60;99.90;;;;;;5066851;28;19951;-74
2022/05/05 07:36:46;;;;;;;10.77;6.50;;;11.70;99.90;;;;;;5033426;28;20043;-74
2022/05/05 07:39:12;;;;;;;9.82;6.65;;;11.80;99.90;;;;;;5053266;28;20315;-73
2022/05/05 07:41:38;;;;;;;11.57;6.40;;;11.80;99.90;;;;;;5053382;28;20032;-73
2022/05/05 07:44:05;;;;;;;10.98;6.25;;;11.90;99.90;;;;;;5049641;28;20123;-73
2022/05/05 07:46:34;;;;;;;9.35;5.95;;;12.00;99.90;;;;;;5050130;28;20512;-74
2022/05/05 07:49:01;;;;;;;16.38;7.20;;;12.00;99.90;;;;;;5032803;28;20037;-74
2022/05/05 07:51:28;;;;;;;11.80;6.75;;;12.10;99.90;;;;;;5049067;28;20441;-73
2022/05/05 07:56:39;;;;;;;12.13;6.45;;;12.40;99.90;;;;;;5033097;28;20505;-74
2022/05/05 07:59:04;;;;;;;12.85;6.82;;;12.50;99.90;;;;;;5038905;28;20178;-73
2022/05/05 08:01:30;;;;;;;13.55;6.15;;;12.60;99.90;;;;;;5036602;28;20041;-74
2022/05/05 08:03:56;;;;;;;12.55;6.35;;;12.70;99.90;;;;;;5032546;28;20492;-73
2022/05/05 08:06:22;;;;;;;12.30;6.43;;;12.90;99.90;;;;;;5038083;28;20040;-73
2022/05/05 08:08:47;;;;;;;11.80;5.82;;;13.00;99.90;;;;;;5036156;28;20047;-74
2022/05/05 08:11:13;;;;;;;13.43;6.43;;;13.20;99.90;;;;;;5049169;28;20045;-75
2022/05/05 08:13:39;;;;;;;13.63;6.28;;;13.30;99.90;;;;;;5052546;28;20116;-75
2022/05/05 08:16:05;;;;;;;12.95;5.40;;;13.50;99.90;;;;;;5035727;28;20052;-74
2022/05/05 08:18:31;;;;;;;12.20;6.13;;;13.50;99.90;;;;;;5050281;28;20094;-75
2022/05/05 08:20:57;;;;;;;15.55;6.18;;;13.60;99.90;;;;;;5035013;28;20044;-74
2022/05/05 08:23:22;;;;;;;13.85;6.07;;;13.80;99.90;;;;;;5050487;28;20032;-74
2022/05/05 08:28:36;;;;;;;11.43;5.28;;;13.90;99.90;;;;;;5049131;28;20044;-73
2022/05/05 08:31:02;;;;;;;7.55;4.88;;;14.00;99.90;;;;;;5044796;28;20037;-74
2022/05/05 08:33:30;;;;;;;10.50;5.28;;;14.20;99.90;;;;;;5048631;28;20377;-73
2022/05/05 08:36:00;;;;;;;11.25;4.70;;;14.40;99.90;;;;;;5036689;28;20073;-73
2022/05/05 08:38:26;;;;;;;9.23;4.60;;;14.60;99.90;;;;;;5027184;28;20033;-73
2022/05/05 08:40:51;;;;;;;10.05;4.60;;;14.70;99.90;;;;;;5040095;28;20522;-74
2022/05/05 08:43:18;;;;;;;9.95;4.50;;;14.80;99.90;;;;;;5046824;28;20040;-73
2022/05/05 08:45:45;;;;;;;;;;;14.90;99.90;;;;;;5046785;28;20047;-73
2022/05/05 08:48:12;;;;;;;7.47;4.57;;;15.10;99.90;;;;;;5048555;28;19917;-73
2022/05/05 08:50:44;;;;;;;8.10;4.60;;;15.20;99.90;;;;;;5042777;28;20041;-74
2022/05/05 08:53:14;;;;;;;9.30;4.40;;;15.40;99.90;;;;;;5040566;28;20045;-73
2022/05/05 08:55:41;;;;;;;10.85;4.72;;;15.40;99.90;;;;;;5038710;28;20041;-73
2022/05/05 08:58:06;;;;;;;7.45;4.47;;;15.60;99.90;;;;;;5039696;28;20146;-72
2022/05/05 09:00:32;;;;;;;10.52;4.68;;;15.70;99.90;;;;;;5037920;28;20080;-75
2022/05/05 09:03:04;;;;;;;9.52;4.03;;;15.80;99.90;;;;;;5034969;28;20426;-75
2022/05/05 09:05:47;;;;;;;9.82;4.20;;;15.90;99.90;;;;;;5035519;28;20124;-75
2022/05/05 09:08:13;;;;;;;7.35;3.95;;;16.30;99.90;;;;;;5037791;28;20124;-75
2022/05/05 09:10:44;;;;;;;10.25;3.97;;;16.50;99.90;;;;;;5055369;28;20119;-76
2022/05/05 09:13:09;;;;;;;6.70;3.80;;;16.90;99.90;;;;;;5054834;28;20045;-76
2022/05/05 09:15:40;;;;;;;8.52;4.07;;;17.20;99.90;;;;;;5038910;28;20058;-75
2022/05/05 09:18:28;;;;;;;8.63;4.03;;;17.50;99.90;;;;;;5054850;28;20061;-75
2022/05/05 09:20:54;;;;;;;7.22;4.00;;;17.50;99.90;;;;;;5038904;28;20444;-75
2022/05/05 09:23:30;;;;;;;8.40;3.80;;;17.70;99.90;;;;;;5039754;28;20167;-74
2022/05/05 09:25:56;;;;;;;6.75;3.80;;;18.30;99.90;;;;;;5039981;28;20114;-75
2022/05/05 09:28:28;;;;;;;9.18;3.75;;;18.50;99.90;;;;;;5035684;28;20501;-74
2022/05/05 09:30:55;;;;;;;9.65;4.00;;;18.50;99.90;;;;;;5051959;28;20366;-75
2022/05/05 09:33:43;;;;;;;8.65;4.53;;;18.60;99.90;;;;;;5054703;28;20041;-74
2022/05/05 09:36:13;;;;;;;6.70;3.63;;;18.50;99.90;;;;;;5047480;28;20052;-75
2022/05/05 09:38:54;;;;;;;8.57;4.28;;;18.40;99.90;;;;;;5055583;28;20448;-75
2022/05/05 09:41:24;;;;;;;9.70;4.05;;;18.70;99.90;;;;;;5038547;28;20546;-75
2022/05/05 09:43:56;;;;;;;10.43;4.35;;;18.80;99.90;;;;;;5039134;28;20393;-75
2022/05/05 09:46:27;;;;;;;7.28;4.88;;;19.10;99.90;;;;;;5049414;28;20051;-74
2022/05/05 09:48:53;;;;;;;8.52;4.30;;;19.20;99.90;;;;;;5054751;28;20091;-74
2022/05/05 09:51:19;;;;;;;6.97;4.15;;;19.50;99.90;;;;;;5047841;28;20059;-75
2022/05/05 09:59:26;;;;;;;6.70;4.57;;;19.70;98.90;;;;;;5055107;28;20037;-75
2022/05/05 10:01:53;;;;;;;8.05;4.97;;;20.00;99.70;;;;;;5055167;28;20044;-76
2022/05/05 10:04:23;;;;;;;6.53;4.30;;;20.20;99.10;;;;;;5055261;28;20382;-75
2022/05/05 10:06:52;;;;;;;6.70;4.43;;;20.40;98.40;;;;;;5055507;28;20055;-75
2022/05/05 10:09:18;;;;;;;7.90;4.60;;;20.70;99.10;;;;;;5048692;28;20041;-75
2022/05/05 10:11:45;;;;;;;;;;;20.40;97.90;;;;;;5050038;28;20500;-74
2022/05/05 10:14:12;;;;;;;9.02;4.95;;;20.40;98.30;;;;;;5068371;28;19956;-75
2022/05/05 10:16:42;;;;;;;8.60;4.93;;;20.60;98.40;;;;;;5044102;28;20040;-73
2022/05/05 10:19:09;;;;;;;9.40;5.00;;;20.70;98.10;;;;;;5045664;28;20069;-75
2022/05/05 10:21:34;;;;;;;;;;;20.80;98.10;;;;;;5047025;28;20112;-74
2022/05/05 10:24:19;;;;;;;7.25;4.63;;;20.50;96.80;;;;;;5049745;28;20000;-75
2022/05/05 10:26:56;;;;;;;7.55;4.53;;;20.50;98.00;;;;;;5050072;28;20049;-75
2022/05/05 10:29:34;;;;;;;10.75;5.03;;;20.50;98.00;;;;;;5049783;28;20120;-74
2022/05/05 10:32:25;;;;;;;8.02;5.10;;;20.80;97.40;;;;;;5051434;28;20053;-75
2022/05/05 10:35:06;;;;;;;12.32;5.28;;;20.30;96.50;;;;;;5051953;28;20119;-75
2022/05/05 10:37:36;;;;;;;9.55;4.47;;;20.30;97.40;;;;;;5029787;28;20449;-75
2022/05/05 10:40:07;;;;;;;7.03;4.47;;;20.70;97.90;;;;;;5043123;28;20047;-75
2022/05/05 10:42:43;;;;;;;7.47;5.03;;;20.80;96.70;;;;;;5051752;28;20045;-74
2022/05/05 10:45:30;;;;;;;6.85;4.85;;;21.30;96.60;;;;;;5043989;28;20037;-74
2022/05/05 10:47:58;;;;;;;7.15;4.80;;;20.80;96.50;;;;;;5048368;28;20049;-76
2022/05/05 10:50:43;;;;;;;8.43;4.97;;;21.30;96.40;;;;;;5031137;28;20112;-74
2022/05/05 10:53:24;;;;;;;6.93;5.00;;;21.60;95.80;;;;;;5031382;28;20049;-74
2022/05/05 10:55:50;;;;;;;7.18;4.68;;;21.50;96.00;;;;;;5018644;28;20143;-75
2022/05/05 10:58:53;;;;;;;7.93;4.50;;;21.60;96.20;;;;;;5051019;28;20120;-74
2022/05/05 11:01:19;;;;;;;7.38;4.45;;;21.70;95.70;;;;;;5048359;28;20049;-74
2022/05/05 11:04:04;;;;;;;9.48;4.82;;;21.60;95.30;;;;;;5050932;28;20039;-74
2022/05/05 11:06:32;;;;;;;8.48;5.03;;;21.70;94.40;;;;;;5032111;28;20149;-75
2022/05/05 11:08:58;;;;;;;8.23;5.00;;;21.80;95.20;;;;;;5045783;28;20167;-75
2022/05/05 11:11:42;;;;;;;;;;;21.90;94.80;;;;;;5034623;28;20258;-74
2022/05/05 11:23:08;;;;;;;8.15;5.05;;;22.20;94.70;;;;;;5050938;28;20049;-74
2022/05/05 11:25:40;;;;;;;8.27;5.03;;;22.20;94.90;;;;;;5043815;28;20366;-74
2022/05/05 11:28:08;;;;;;;8.52;4.93;;;22.40;94.30;;;;;;5050415;28;20049;-74
2022/05/05 11:30:35;;;;;;;5.43;4.60;;;22.50;94.00;;;;;;5050402;28;20044;-74
2022/05/05 11:33:03;;;;;;;9.57;4.63;;;22.30;94.30;;;;;;5047855;28;20045;-75
2022/05/05 11:35:29;;;;;;;7.60;4.45;;;22.50;94.50;;;;;;5047652;28;20067;-74
2022/05/05 11:37:55;;;;;;;;;;;22.30;94.30;;;;;;5050915;28;20066;-76
2022/05/05 11:40:20;;;;;;;6.97;4.85;;;22.10;93.90;;;;;;5033473;28;19923;-75
2022/05/05 11:45:34;;;;;;;9.60;4.95;;;22.20;93.90;;;;;;5049940;28;19928;-75
2022/05/05 11:48:17;;;;;;;10.70;5.53;;;22.50;93.80;;;;;;5050450;28;20485;-75
2022/05/05 11:50:46;;;;;;;7.70;4.95;;;22.70;94.00;;;;;;5049591;28;20041;-74
2022/05/05 11:53:17;;;;;;;8.85;5.35;;;22.90;93.70;;;;;;5048976;28;20040;-75
2022/05/05 11:55:46;;;;;;;8.88;5.80;;;22.90;93.30;;;;;;5049470;28;20397;-75
2022/05/05 12:01:36;;;;;;;8.55;6.22;;;23.30;93.30;;;;;;5034650;28;20037;-74
2022/05/05 12:03:57;;;;;;;8.57;5.68;;;23.60;93.50;;;;;;5040583;28;20051;-78
2022/05/05 12:06:24;;;;;;;6.70;5.28;;;23.30;92.50;;;;;;5040282;28;20056;-77
2022/05/05 12:08:50;;;;;;;8.75;5.82;;;23.20;92.50;;;;;;5038530;28;20060;-80
2022/05/05 12:11:15;;;;;;;;;;;23.10;92.40;;;;;;5041414;28;20042;-80
2022/05/05 12:13:41;;;;;;;8.05;5.57;;;22.80;92.80;;;;;;5056359;28;19917;-83
2022/05/05 12:16:08;;;;;;;;;;;23.00;93.60;;;;;;5041208;28;20497;-79
2022/05/05 12:18:33;;;;;;;9.07;5.70;;;23.40;93.40;;;;;;5059175;28;19917;-77
2022/05/05 12:20:59;;;;;;;;;;;23.40;92.40;;;;;;5032025;28;20389;-79
2022/05/05 12:23:27;;;;;;;7.57;4.90;;;23.50;92.30;;;;;;5042422;28;19920;-78
2022/05/05 12:25:53;;;;;;;7.47;4.70;;;23.60;92.00;;;;;;5042869;28;20112;-82
2022/05/05 12:28:18;;;;;;;10.63;4.93;;;23.60;91.10;;;;;;5040420;28;20386;-83
2022/05/05 12:30:44;;;;;;;;;;;23.80;91.30;;;;;;5040923;28;20040;-84
2022/05/05 12:33:12;;;;;;;6.80;5.03;;;24.00;90.70;;;;;;5033097;28;19972;-82
2022/05/05 12:35:40;;;;;;;6.95;4.85;;;23.90;91.00;;;;;;5023192;28;20060;-80
2022/05/05 12:38:08;;;;;;;6.28;4.72;;;24.10;91.10;;;;;;5040390;28;20452;-82
2022/05/05 12:40:35;;;;;;;7.57;5.50;;;23.80;91.50;;;;;;5030146;28;20048;-82
2022/05/05 12:43:22;;;;;;;8.25;4.55;;;23.50;91.40;;;;;;5043889;28;20066;-83
2022/05/05 12:45:49;;;;;;;5.63;4.28;;;23.50;91.00;;;;;;5042945;28;20038;-82
2022/05/05 12:48:15;;;;;;;7.30;4.97;;;23.80;91.50;;;;;;5041649;28;20048;-83
2022/05/05 12:50:40;;;;;;;8.07;4.25;;;23.80;91.10;;;;;;5029936;28;20044;-83
2022/05/05 13:01:52;;;;;;;7.22;4.43;;;23.50;90.80;;;;;;5039379;28;20049;-82
2022/05/05 13:04:19;;;;;;;7.82;4.80;;;23.90;90.90;;;;;;5046849;28;20041;-81
2022/05/05 13:06:50;;;;;;;6.95;4.60;;;24.00;90.90;;;;;;5038661;28;20037;-80
2022/05/05 13:09:17;;;;;;;7.93;4.30;;;24.20;90.60;;;;;;5030608;28;20072;-81
2022/05/05 13:11:44;;;;;;;6.97;4.80;;;24.30;90.80;;;;;;5038403;28;20037;-80
2022/05/05 13:14:11;;;;;;;7.72;5.28;;;24.40;90.30;;;;;;5040709;28;20048;-80
2022/05/05 13:16:37;;;;;;;6.30;4.95;;;24.30;91.00;;;;;;5013758;28;20029;-82
2022/05/05 13:19:04;;;;;;;7.55;5.22;;;23.80;90.10;;;;;;5041532;28;20433;-80
2022/05/05 13:21:33;;;;;;;7.57;4.82;;;23.60;90.30;;;;;;5040344;28;20033;-79
2022/05/05 13:23:59;;;;;;;8.73;5.70;;;23.40;90.40;;;;;;5037428;28;20557;-80
2022/05/05 13:26:25;;;;;;;9.77;5.47;;;23.70;91.10;;;;;;5039079;28;20364;-79
2022/05/05 13:28:52;;;;;;;8.65;5.07;;;23.50;90.00;;;;;;5036737;28;20049;-80
2022/05/05 13:31:17;;;;;;;7.03;5.35;;;23.40;90.70;;;;;;5039169;28;20063;-81
2022/05/05 13:33:43;;;;;;;;;;;23.50;90.80;;;;;;5037010;28;20041;-81
2022/05/05 13:36:10;;;;;;;10.23;5.60;;;23.30;90.10;;;;;;5041426;28;19926;-80
2022/05/05 13:38:35;;;;;;;9.50;4.90;;;23.30;91.30;;;;;;5037033;28;20037;-80
2022/05/05 13:41:01;;;;;;;;;;;23.10;90.70;;;;;;5040070;28;20091;-80
2022/05/05 13:43:27;;;;;;;6.90;4.90;;;22.90;90.50;;;;;;5038868;28;19916;-80